YO6IKB-10 Weather Reports


time (UTC)temp
C
wind
direction
speed
KPH
gust
KPH
rain 1hr
cm
rain 24hr
cm
rain mn
cm
humidity
%
barometer
mb
20240222113143 12 202 19.3 30.6 0.00 0.00 0.00 49 1010.8
20240222112642 12 247 12.9 27.4 0.00 0.00 0.00 53 1010.9
20240222112142 12 247 11.3 32.2 0.00 0.00 0.00 53 1011.0
20240222111642 11 225 27.4 32.2 0.00 0.00 0.00 56 1011.1
20240222111141 11 225 6.4 8.0 0.00 0.00 0.00 60 1011.3
20240222110641 11 0 0.0 9.7 0.00 0.00 0.00 60 1011.3
20240222110141 10 315 3.2 4.8 0.00 0.00 0.00 60 1011.4
20240222105641 11 337 3.2 8.0 0.00 0.00 0.00 60 1011.6
20240222105140 11 0 8.0 9.7 0.00 0.00 0.00 63 1011.8
20240222104640 10 270 4.8 9.7 0.00 0.00 0.00 64 1011.9
20240222104140 10 292 8.0 9.7 0.00 0.00 0.00 61 1011.9
20240222103639 10 22 0.0 6.4 0.00 0.00 0.00 61 1011.9
20240222103139 10 337 1.6 6.4 0.00 0.00 0.00 61 1012.1
20240222102639 10 22 1.6 6.4 0.00 0.00 0.00 62 1012.2
20240222102138 10 0 3.2 4.8 0.00 0.00 0.00 63 1012.3
20240222101638 10 270 4.8 9.7 0.00 0.00 0.00 63 1012.4
20240222101138 10 292 3.2 8.0 0.00 0.00 0.00 64 1012.5
20240222100638 9 337 3.2 4.8 0.00 0.00 0.00 64 1012.5
20240222100137 9 0 0.0 4.8 0.00 0.00 0.00 63 1012.4
20240222095637 9 292 0.0 6.4 0.00 0.00 0.00 65 1012.6
20240222095137 9 0 1.6 6.4 0.00 0.00 0.00 64 1012.6
20240222094636 10 0 6.4 6.4 0.00 0.00 0.00 66 1012.7
20240222094136 10 315 0.0 9.7 0.00 0.00 0.00 69 1012.8
20240222093636 8 292 6.4 8.0 0.00 0.00 0.00 70 1012.9
20240222093135 8 292 6.4 6.4 0.00 0.00 0.00 70 1012.9
20240222092635 7 292 3.2 6.4 0.00 0.00 0.00 69 1013.0
20240222092135 7 337 4.8 4.8 0.00 0.00 0.00 70 1013.0
20240222091635 7 315 3.2 6.4 0.00 0.00 0.00 69 1013.1
20240222091134 7 315 3.2 8.0 0.00 0.00 0.00 70 1013.1
20240222090634 7 22 0.0 8.0 0.00 0.00 0.00 71 1013.1
20240222090134 7 315 1.6 3.2 0.00 0.00 0.00 72 1013.1
20240222085633 6 315 0.0 4.8 0.00 0.00 0.00 71 1013.1
20240222085133 6 0 4.8 8.0 0.00 0.00 0.00 71 1013.1
20240222084633 6 315 4.8 8.0 0.00 0.00 0.00 72 1013.1
20240222084133 6 67 4.8 8.0 0.00 0.00 0.00 72 1013.2
20240222083632 6 315 0.0 8.0 0.00 0.00 0.00 72 1013.3
20240222083132 6 0 1.6 6.4 0.00 0.00 0.00 73 1013.4
20240222082632 6 0 3.2 6.4 0.00 0.00 0.00 73 1013.5
20240222082131 6 315 1.6 6.4 0.00 0.00 0.00 73 1013.5
20240222081631 6 0 4.8 6.4 0.00 0.00 0.00 73 1013.6
20240222081131 6 0 1.6 4.8 0.00 0.00 0.00 73 1013.6
20240222080631 6 22 3.2 4.8 0.00 0.00 0.00 74 1013.6
20240222080130 6 22 3.2 4.8 0.00 0.00 0.00 74 1013.6
20240222075630 6 22 0.0 3.2 0.00 0.00 0.00 74 1013.7
20240222075130 6 22 1.6 4.8 0.00 0.00 0.00 74 1013.7
20240222074629 6 67 4.8 4.8 0.00 0.00 0.00 75 1013.8
20240222074129 6 112 0.0 0.0 0.00 0.00 0.00 77 1013.9
20240222073629 6 112 0.0 1.6 0.00 0.00 0.00 78 1013.9
20240222073128 6 112 0.0 3.2 0.00 0.00 0.00 79 1013.9
20240222072628 6 112 0.0 0.0 0.00 0.00 0.00 80 1013.9
20240222072128 5 112 0.0 3.2 0.00 0.00 0.00 81 1013.9
20240222071628 5 112 0.0 3.2 0.00 0.00 0.00 81 1014.0
20240222071127 5 112 0.0 4.8 0.00 0.00 0.00 82 1014.0
20240222070627 5 112 4.8 4.8 0.00 0.00 0.00 83 1014.1
20240222070127 5 112 0.0 1.6 0.00 0.00 0.00 84 1014.0
20240222065626 5 112 0.0 1.6 0.00 0.00 0.00 85 1014.1
20240222065126 4 112 0.0 3.2 0.00 0.00 0.00 86 1014.1
20240222064626 4 112 1.6 1.6 0.00 0.00 0.00 86 1014.1
20240222064126 3 112 0.0 1.6 0.00 0.00 0.00 87 1014.2
20240222063625 3 112 0.0 0.0 0.00 0.00 0.00 87 1014.1
20240222063125 3 112 0.0 0.0 0.00 0.00 0.00 87 1014.1
20240222062625 3 112 0.0 0.0 0.00 0.00 0.00 87 1014.2
20240222062124 2 112 0.0 0.0 0.00 0.00 0.00 87 1014.2
20240222061624 2 112 0.0 1.6 0.00 0.00 0.00 87 1014.3
20240222061124 2 112 0.0 1.6 0.00 0.00 0.00 86 1014.3
20240222060623 2 112 0.0 0.0 0.00 0.00 0.00 86 1014.3
20240222060123 1 112 0.0 0.0 0.00 0.00 0.00 86 1014.4
20240222055623 1 112 0.0 0.0 0.00 0.00 0.00 86 1014.4
20240222055123 1 112 0.0 0.0 0.00 0.00 0.00 86 1014.4
20240222054622 1 112 0.0 0.0 0.00 0.00 0.00 85 1014.4
20240222054122 0 112 0.0 0.0 0.00 0.00 0.00 85 1014.3
20240222053622 0 112 0.0 1.6 0.00 0.00 0.00 85 1014.4
20240222053121 0 112 0.0 0.0 0.00 0.00 0.00 85 1014.3
20240222052621 0 112 0.0 1.6 0.00 0.00 0.00 85 1014.3
20240222052121 0 112 0.0 3.2 0.00 0.00 0.00 85 1014.4
20240222051621 0 90 3.2 4.8 0.00 0.00 0.00 85 1014.3
20240222051120 1 90 1.6 4.8 0.00 0.00 0.00 84 1014.3
20240222050620 1 90 0.0 4.8 0.00 0.00 0.00 84 1014.2
20240222050120 1 90 0.0 0.0 0.00 0.00 0.00 84 1014.2
20240222045619 1 90 0.0 1.6 0.00 0.00 0.00 84 1014.0
20240222045119 1 90 0.0 1.6 0.00 0.00 0.00 84 1014.0
20240222044619 1 90 0.0 0.0 0.00 0.00 0.00 84 1014.1
20240222044118 1 90 0.0 1.6 0.00 0.00 0.00 84 1014.2
20240222043618 1 90 0.0 1.6 0.00 0.00 0.00 84 1014.2
20240222043118 1 90 0.0 1.6 0.00 0.00 0.00 84 1014.3
20240222042618 1 90 1.6 1.6 0.00 0.00 0.00 84 1014.2
20240222042117 1 90 1.6 1.6 0.00 0.00 0.00 84 1014.3
20240222041617 1 90 1.6 1.6 0.00 0.00 0.00 84 1014.2
20240222041117 2 90 1.6 3.2 0.00 0.00 0.00 84 1014.3
20240222040616 2 90 1.6 3.2 0.00 0.00 0.00 83 1014.2
20240222040116 2 90 1.6 1.6 0.00 0.00 0.00 84 1014.3
20240222035616 2 90 0.0 1.6 0.00 0.00 0.00 84 1014.4
20240222035116 2 90 0.0 1.6 0.00 0.00 0.00 84 1014.5
20240222034615 2 90 0.0 1.6 0.00 0.00 0.00 84 1014.5
20240222034115 2 90 0.0 1.6 0.00 0.00 0.00 84 1014.6
20240222033615 2 90 0.0 1.6 0.00 0.00 0.00 84 1014.6
20240222033114 2 90 1.6 1.6 0.00 0.00 0.00 84 1014.6
20240222032614 2 90 0.0 1.6 0.00 0.00 0.00 84 1014.7
20240222032114 2 90 1.6 1.6 0.00 0.00 0.00 84 1014.6
20240222031614 2 90 0.0 1.6 0.00 0.00 0.00 84 1014.7
20240222031113 2 90 0.0 1.6 0.00 0.00 0.00 84 1014.8
20240222030613 2 90 1.6 1.6 0.00 0.00 0.00 84 1014.8
20240222030113 2 90 1.6 1.6 0.00 0.00 0.00 84 1014.8
20240222025612 2 90 0.0 0.0 0.00 0.00 0.00 84 1014.8
20240222025112 2 90 0.0 0.0 0.00 0.00 0.00 84 1014.8
20240222024612 2 90 0.0 0.0 0.00 0.00 0.00 84 1014.8
20240222024111 2 90 0.0 0.0 0.00 0.00 0.00 84 1014.8
20240222023611 2 90 0.0 1.6 0.00 0.00 0.00 84 1015.0
20240222023111 2 90 0.0 0.0 0.00 0.00 0.00 84 1015.0
20240222022611 2 90 0.0 1.6 0.00 0.00 0.00 84 1015.0
20240222022110 2 90 0.0 1.6 0.00 0.00 0.00 84 1015.0
20240222021610 2 90 0.0 1.6 0.00 0.00 0.00 84 1015.1
20240222021110 2 90 0.0 0.0 0.00 0.00 0.00 84 1015.1
20240222020609 2 90 0.0 0.0 0.00 0.00 0.00 84 1015.2
20240222020109 2 90 0.0 1.6 0.00 0.00 0.00 84 1015.3
20240222015609 2 90 0.0 1.6 0.00 0.00 0.00 84 1015.3
20240222015109 2 90 0.0 0.0 0.00 0.00 0.00 84 1015.3
20240222014608 2 90 0.0 0.0 0.00 0.00 0.00 84 1015.3
20240222014108 2 90 0.0 0.0 0.00 0.00 0.00 84 1015.3
20240222013608 2 90 0.0 0.0 0.00 0.00 0.00 84 1015.3
20240222013107 1 90 0.0 0.0 0.00 0.00 0.00 84 1015.4
20240222012607 1 90 0.0 0.0 0.00 0.00 0.00 84 1015.4
20240222012107 1 90 0.0 1.6 0.00 0.00 0.00 84 1015.4
20240222011606 1 90 0.0 1.6 0.00 0.00 0.00 84 1015.5
20240222011106 1 90 0.0 1.6 0.00 0.00 0.00 84 1015.4
20240222010606 1 90 1.6 3.2 0.00 0.00 0.00 83 1015.4
20240222010106 1 90 3.2 3.2 0.00 0.00 0.00 83 1015.6
20240222005605 1 90 1.6 1.6 0.00 0.00 0.00 83 1015.6
20240222005105 1 90 0.0 1.6 0.00 0.00 0.00 83 1015.7
20240222004605 1 90 0.0 3.2 0.00 0.00 0.00 83 1015.7
20240222004104 1 90 0.0 6.4 0.00 0.00 0.00 83 1015.9
20240222003604 1 90 0.0 0.0 0.00 0.00 0.00 83 1015.8
20240222003104 1 90 0.0 1.6 0.00 0.00 0.00 83 1015.7
20240222002604 1 90 0.0 3.2 0.00 0.00 0.00 83 1015.8
20240222002103 1 67 0.0 0.0 0.00 0.00 0.00 83 1015.9
20240222001603 1 67 0.0 1.6 0.00 0.00 0.00 83 1015.9
20240222001103 1 67 0.0 0.0 0.00 0.00 0.00 83 1015.9
20240222000602 1 67 0.0 1.6 0.00 0.00 0.00 83 1015.9
20240222000102 1 67 0.0 0.0 0.00 0.00 0.00 83 1016.0
20240221235602 1 67 0.0 0.0 0.00 0.00 0.00 83 1015.9
20240221235101 1 67 0.0 0.0 0.00 0.00 0.00 82 1016.0
20240221234601 1 67 0.0 0.0 0.00 0.00 0.00 82 1015.9
20240221234101 1 67 0.0 1.6 0.00 0.00 0.00 82 1015.9
20240221233601 1 67 0.0 1.6 0.00 0.00 0.00 81 1015.9
20240221233100 1 67 1.6 1.6 0.00 0.00 0.00 81 1015.9
20240221232600 1 67 0.0 0.0 0.00 0.00 0.00 81 1015.9
20240221232100 1 67 0.0 1.6 0.00 0.00 0.00 81 1016.0
20240221231559 1 67 0.0 1.6 0.00 0.00 0.00 81 1016.1
20240221231059 1 67 0.0 0.0 0.00 0.00 0.00 81 1016.0
20240221230559 2 67 0.0 0.0 0.00 0.00 0.00 81 1016.0
20240221230059 2 67 0.0 3.2 0.00 0.00 0.00 81 1015.9
20240221225558 2 67 0.0 0.0 0.00 0.00 0.00 81 1015.9
20240221225058 2 67 0.0 3.2 0.00 0.00 0.00 81 1015.9
20240221224558 2 45 1.6 3.2 0.00 0.00 0.00 80 1015.9
20240221224057 2 45 0.0 3.2 0.00 0.00 0.00 80 1016.0
20240221223557 2 45 3.2 3.2 0.00 0.00 0.00 80 1016.1
20240221223057 2 45 1.6 3.2 0.00 0.00 0.00 79 1016.1
20240221222557 3 45 3.2 4.8 0.00 0.00 0.00 79 1016.2
20240221222056 3 202 3.2 4.8 0.00 0.00 0.00 79 1016.3
20240221221556 3 292 0.0 3.2 0.00 0.00 0.00 78 1016.3
20240221221056 3 292 0.0 4.8 0.00 0.00 0.00 78 1016.4
20240221220555 3 292 4.8 6.4 0.00 0.00 0.00 78 1016.3
20240221220055 3 292 3.2 8.0 0.00 0.00 0.00 78 1016.5
20240221215555 3 292 3.2 4.8 0.00 0.00 0.00 78 1016.5
20240221215054 3 292 1.6 3.2 0.00 0.00 0.00 78 1016.5
20240221214554 3 292 1.6 1.6 0.00 0.00 0.00 78 1016.5
20240221214054 3 292 1.6 3.2 0.00 0.00 0.00 78 1016.5
20240221213554 4 292 1.6 3.2 0.00 0.00 0.00 78 1016.6
20240221213053 4 292 0.0 3.2 0.00 0.00 0.00 77 1016.5
20240221212553 4 292 0.0 4.8 0.00 0.00 0.00 77 1016.6
20240221212053 5 292 3.2 6.4 0.00 0.00 0.00 78 1016.6
20240221211552 5 292 3.2 6.4 0.00 0.00 0.00 78 1016.6
20240221211052 5 292 0.0 3.2 0.00 0.00 0.00 78 1016.6
20240221210552 5 292 1.6 24.1 0.00 0.00 0.00 78 1016.6
20240221210052 5 315 0.0 3.2 0.00 0.00 0.00 79 1016.7
20240221205551 5 315 3.2 8.0 0.00 0.00 0.00 79 1016.6
20240221205051 5 315 0.0 3.2 0.00 0.00 0.00 79 1016.7
20240221204551 5 315 0.0 1.6 0.00 0.00 0.00 79 1016.7
20240221204050 4 315 0.0 0.0 0.00 0.00 0.00 78 1016.7
20240221203550 4 315 0.0 3.2 0.00 0.00 0.00 79 1016.7
20240221203050 4 315 3.2 3.2 0.00 0.00 0.00 78 1016.7
20240221202549 4 315 3.2 3.2 0.00 0.00 0.00 78 1016.6
20240221202049 4 315 1.6 3.2 0.00 0.00 0.00 78 1016.6
20240221201549 4 315 1.6 4.8 0.00 0.00 0.00 78 1016.6
20240221201049 4 315 0.0 3.2 0.00 0.00 0.00 78 1016.6
20240221200548 4 315 0.0 3.2 0.00 0.00 0.00 78 1016.7
20240221200048 4 315 0.0 3.2 0.00 0.00 0.00 78 1016.7
20240221195548 4 315 3.2 4.8 0.00 0.00 0.00 77 1016.7
20240221195047 4 315 0.0 4.8 0.00 0.00 0.00 77 1016.7
20240221194547 4 315 3.2 8.0 0.00 0.00 0.00 77 1016.7
20240221194047 4 270 1.6 4.8 0.00 0.00 0.00 77 1016.7
20240221193547 4 270 0.0 3.2 0.00 0.00 0.00 76 1016.8
20240221193046 4 270 1.6 6.4 0.00 0.00 0.00 77 1016.9
20240221192546 4 247 0.0 3.2 0.00 0.00 0.00 77 1016.8
20240221192046 4 247 1.6 6.4 0.00 0.00 0.00 76 1016.8
20240221191545 4 225 6.4 9.7 0.00 0.00 0.00 76 1016.9
20240221191045 4 202 6.4 11.3 0.00 0.00 0.00 76 1016.8
20240221190545 4 202 8.0 12.9 0.00 0.00 0.00 76 1016.8
20240221190045 4 225 8.0 16.1 0.00 0.00 0.00 75 1016.8
20240221185544 4 225 6.4 8.0 0.00 0.00 0.00 75 1016.7
20240221185044 4 247 6.4 6.4 0.00 0.00 0.00 75 1016.7
20240221184544 5 225 6.4 11.3 0.00 0.00 0.00 75 1016.7
20240221184043 5 202 4.8 14.5 0.00 0.00 0.00 75 1016.7
20240221183543 5 225 8.0 16.1 0.00 0.00 0.00 75 1016.7
20240221183043 5 225 8.0 11.3 0.00 0.00 0.00 74 1016.6
20240221182543 5 225 6.4 12.9 0.00 0.00 0.00 74 1016.6
20240221182042 5 315 8.0 8.0 0.00 0.00 0.00 73 1016.5
20240221181542 5 292 8.0 8.0 0.00 0.00 0.00 73 1016.6
20240221181042 5 292 3.2 8.0 0.00 0.00 0.00 73 1016.5
20240221180541 5 292 6.4 9.7 0.00 0.00 0.00 73 1016.4
20240221180041 5 292 4.8 11.3 0.00 0.00 0.00 73 1016.4
20240221175541 5 225 9.7 9.7 0.00 0.00 0.00 73 1016.3
20240221175040 6 292 8.0 16.1 0.00 0.00 0.00 73 1016.4
20240221174540 6 225 6.4 9.7 0.00 0.00 0.00 73 1016.4
20240221174040 6 225 8.0 8.0 0.00 0.00 0.00 73 1016.4
20240221173540 6 202 1.6 6.4 0.00 0.00 0.00 72 1016.4
20240221173039 6 202 4.8 9.7 0.00 0.00 0.00 72 1016.4
20240221172539 6 315 3.2 8.0 0.00 0.00 0.00 72 1016.4
20240221172039 6 270 3.2 6.4 0.00 0.00 0.00 71 1016.3
20240221171538 6 292 3.2 8.0 0.00 0.00 0.00 71 1016.3
20240221171038 6 292 4.8 6.4 0.00 0.00 0.00 71 1016.3
20240221170538 6 292 1.6 3.2 0.00 0.00 0.00 71 1016.2
20240221170037 6 292 1.6 4.8 0.00 0.00 0.00 70 1016.2
20240221165537 6 292 1.6 6.4 0.00 0.00 0.00 70 1016.1
20240221165037 6 292 3.2 3.2 0.00 0.00 0.00 70 1016.2
20240221164537 7 292 3.2 4.8 0.00 0.00 0.00 70 1016.2
20240221164036 7 292 3.2 4.8 0.00 0.00 0.00 69 1016.2
20240221163536 7 270 1.6 3.2 0.00 0.00 0.00 69 1016.1
20240221163036 7 270 0.0 3.2 0.00 0.00 0.00 69 1016.1
20240221162535 7 270 0.0 3.2 0.00 0.00 0.00 68 1015.9
20240221162035 7 292 1.6 1.6 0.00 0.00 0.00 68 1016.0
20240221161535 7 292 1.6 6.4 0.00 0.00 0.00 68 1015.9
20240221161035 7 270 1.6 6.4 0.00 0.00 0.00 68 1015.9
20240221160534 7 247 4.8 4.8 0.00 0.00 0.00 68 1015.8
20240221160035 7 247 3.2 6.4 0.00 0.00 0.00 68 1015.8
20240221155534 7 247 3.2 4.8 0.00 0.00 0.00 68 1015.8
20240221155033 7 247 0.0 3.2 0.00 0.00 0.00 68 1015.7
20240221154533 7 247 1.6 4.8 0.00 0.00 0.00 68 1015.7
20240221154033 7 247 0.0 1.6 0.00 0.00 0.00 67 1015.6
20240221153532 7 247 0.0 1.6 0.00 0.00 0.00 67 1015.7
20240221153032 8 247 0.0 3.2 0.00 0.00 0.00 67 1015.6
20240221152532 8 247 1.6 3.2 0.00 0.00 0.00 66 1015.6
20240221152032 8 247 1.6 3.2 0.00 0.00 0.00 66 1015.6
20240221151531 8 247 0.0 3.2 0.00 0.00 0.00 66 1015.6
20240221151031 8 247 3.2 3.2 0.00 0.00 0.00 65 1015.7
20240221150531 8 247 0.0 0.0 0.00 0.00 0.00 65 1015.6
20240221150030 8 247 0.0 3.2 0.00 0.00 0.00 64 1015.7
20240221145530 8 247 1.6 3.2 0.00 0.00 0.00 64 1015.7
20240221145030 8 247 0.0 3.2 0.00 0.00 0.00 64 1015.6
20240221144530 8 247 1.6 3.2 0.00 0.00 0.00 64 1015.6
20240221144029 8 247 0.0 6.4 0.00 0.00 0.00 63 1015.6
20240221143529 8 202 4.8 9.7 0.00 0.00 0.00 63 1015.6
20240221143029 8 292 0.0 6.4 0.00 0.00 0.00 62 1015.6
20240221142528 8 292 3.2 8.0 0.00 0.00 0.00 60 1015.6
20240221142028 8 0 1.6 3.2 0.00 0.00 0.00 60 1015.6
20240221141528 8 292 3.2 6.4 0.00 0.00 0.00 60 1015.6
20240221141028 8 315 3.2 6.4 0.00 0.00 0.00 60 1015.6
20240221140527 8 315 0.0 3.2 0.00 0.00 0.00 60 1015.6
20240221140027 8 292 3.2 8.0 0.00 0.00 0.00 59 1015.7
20240221135527 8 337 0.0 8.0 0.00 0.00 0.00 60 1015.7
20240221135026 8 0 1.6 12.9 0.00 0.00 0.00 59 1015.7
20240221134526 8 315 1.6 9.7 0.00 0.00 0.00 59 1015.7
20240221134026 9 337 4.8 9.7 0.00 0.00 0.00 59 1015.7
20240221133526 9 292 3.2 6.4 0.00 0.00 0.00 60 1015.7
20240221133025 9 270 4.8 6.4 0.00 0.00 0.00 62 1015.8
20240221132525 9 270 4.8 8.0 0.00 0.00 0.00 61 1015.9
20240221132025 8 315 4.8 6.4 0.00 0.00 0.00 60 1015.8
20240221131524 8 22 1.6 4.8 0.00 0.00 0.00 58 1015.9
20240221131024 8 292 0.0 4.8 0.00 0.00 0.00 59 1016.0
20240221130524 9 22 0.0 8.0 0.00 0.00 0.00 57 1016.0
20240221130023 9 292 4.8 4.8 0.00 0.00 0.00 59 1015.9
20240221125523 9 67 0.0 8.0 0.00 0.00 0.00 58 1016.0
20240221125023 9 67 3.2 8.0 0.00 0.00 0.00 59 1016.1
20240221124523 8 67 0.0 4.8 0.00 0.00 0.00 58 1016.1
20240221124022 8 67 3.2 4.8 0.00 0.00 0.00 58 1016.1
20240221123522 9 22 3.2 6.4 0.00 0.00 0.00 58 1016.2
20240221123022 9 292 0.0 6.4 0.00 0.00 0.00 60 1016.2
20240221122521 8 0 0.0 12.9 0.00 0.00 0.00 58 1016.4
20240221122021 9 45 12.9 12.9 0.00 0.00 0.00 56 1016.4
20240221121521 9 22 3.2 9.7 0.00 0.00 0.00 60 1016.4
20240221121021 8 292 3.2 6.4 0.00 0.00 0.00 60 1016.4
20240221120520 8 337 3.2 8.0 0.00 0.00 0.00 59 1016.5
20240221120020 8 45 3.2 8.0 0.00 0.00 0.00 59 1016.5
20240221115520 8 45 3.2 9.7 0.00 0.00 0.00 59 1016.6
20240221115019 8 22 0.0 11.3 0.00 0.00 0.00 61 1016.6
20240221114519 8 0 6.4 9.7 0.00 0.00 0.00 60 1016.7
20240221114019 8 45 6.4 9.7 0.00 0.00 0.00 60 1016.7
20240221113518 8 315 3.2 4.8 0.00 0.00 0.00 63 1016.8